»·PEaware :: UPS989 KGEG-KBFI

UPS989 :: KGEG-KBFI

FLIGHT INFORMATION

Flight Status: Arrived
Operator:
United Parcel Service
More flights by this operator :: More flights under this callsign
Pilot: Cooper L. (8467)
Aircraft: BOEING 757-200
(B752)
More flights by this aircraft type
Origin: KGEG Spokane Intl
United States
Destination: KBFI Boeing Field/King Co Intl
United States
More flights between these airports :: More routes between these airports
Route: TEMPL GLASR1
File this flight plan on PilotEdge
Remarks:
Altitude:
(Current/Filed)
26,000ft
Speed:
(Current/Filed)
450kts
Departed: 27-May-18 08:33 PM
Arrived: 27-May-18 09:14 PM
Distance/Time
Traveled:
193nm/0:41
Distance/Time
To Go:
Arrived

Flight Plot

Page will automatically refresh every two minutes.

Flight plan parsing failed; only flown route is shown


Map Options




Map Legend


Flown Route
Filed Route
Departure Airport
Arrival Airport
Navaid (VOR, NDB)
Fix

Horizontal Profiles

Position Reports

Time Latitude Longitude Heading Altitude Ground
Speed
27-May-18 20:17 47.627665 -117.529182 314 2349ft 0kts
27-May-18 20:18 47.627665 -117.529182 314 2349ft 0kts
27-May-18 20:19 47.627665 -117.529182 314 2349ft 0kts
27-May-18 20:20 47.627665 -117.529182 314 2349ft 0kts
27-May-18 20:21 47.627665 -117.529182 314 2349ft 0kts
27-May-18 20:22 47.627665 -117.529182 314 2349ft 0kts
27-May-18 20:23 47.627665 -117.529182 314 2349ft 0kts
27-May-18 20:24 47.627665 -117.529182 314 2349ft 0kts
27-May-18 20:25 47.627665 -117.529182 314 2349ft 0kts
27-May-18 20:26 47.627665 -117.529182 314 2349ft 0kts
27-May-18 20:27 47.627665 -117.529182 314 2349ft 0kts
27-May-18 20:28 47.627666 -117.529182 314 2349ft 0kts
27-May-18 20:29 47.627666 -117.529182 314 2349ft 0kts
27-May-18 20:30 47.627866 -117.527356 50 2346ft 20kts
27-May-18 20:31 47.631871 -117.521311 44 2331ft 16kts
27-May-18 20:32 47.629819 -117.520364 225 2332ft 37kts
27-May-18 20:33 47.603912 -117.557275 220 3903ft 166kts
27-May-18 20:34 47.557237 -117.613847 219 5046ft 252kts
27-May-18 20:35 47.535102 -117.702382 302 7758ft 269kts
27-May-18 20:36 47.561989 -117.807341 281 10315ft 297kts
27-May-18 20:37 47.578068 -117.945419 279 11818ft 362kts
27-May-18 20:38 47.593555 -118.094864 278 14225ft 374kts
27-May-18 20:39 47.609165 -118.249075 278 16738ft 386kts
27-May-18 20:40 47.625959 -118.408552 279 19023ft 399kts
27-May-18 20:41 47.642447 -118.573648 278 21130ft 411kts
27-May-18 20:42 47.658630 -118.740664 277 23097ft 422kts
27-May-18 20:43 47.675917 -118.915117 278 25071ft 431kts
27-May-18 20:44 47.692659 -119.089322 277 26086ft 437kts
27-May-18 20:45 47.708909 -119.276263 277 26074ft 470kts
27-May-18 20:46 47.726769 -119.468461 277 26072ft 470kts
27-May-18 20:47 47.742381 -119.657180 276 26072ft 482kts
27-May-18 20:48 47.757848 -119.854321 276 26071ft 482kts
27-May-18 20:49 47.773120 -120.051803 276 26064ft 482kts
27-May-18 20:50 47.788602 -120.249490 275 26063ft 482kts
27-May-18 20:51 47.801629 -120.446404 275 24577ft 472kts
27-May-18 20:52 47.814322 -120.630178 276 22840ft 436kts
27-May-18 20:53 47.825776 -120.801717 274 20426ft 421kts
27-May-18 20:54 47.834574 -120.943870 275 18390ft 410kts
27-May-18 20:55 47.845621 -121.107768 276 16675ft 367kts
27-May-18 20:56 47.856575 -121.265544 275 14778ft 316kts
27-May-18 20:57 47.864674 -121.391288 276 13218ft 310kts
27-May-18 20:58 47.872614 -121.517434 276 11786ft 299kts
27-May-18 20:59 47.879880 -121.634945 276 11009ft 275kts
27-May-18 21:00 47.857807 -121.738677 225 11026ft 287kts
27-May-18 21:01 47.809539 -121.806119 225 11018ft 287kts
27-May-18 21:02 47.751009 -121.885973 224 11008ft 288kts
27-May-18 21:03 47.708530 -121.978476 277 10303ft 277kts
27-May-18 21:04 47.726745 -122.085545 285 8533ft 270kts
27-May-18 21:05 47.745706 -122.193109 285 7125ft 267kts
27-May-18 21:06 47.764256 -122.299439 285 5891ft 264kts
27-May-18 21:07 47.781989 -122.401756 285 4732ft 260kts
27-May-18 21:08 47.759360 -122.500642 223 2887ft 265kts
27-May-18 21:09 47.701184 -122.481411 116 2009ft 233kts
27-May-18 21:10 47.658874 -122.412725 149 1991ft 232kts
27-May-18 21:11 47.610659 -122.371030 150 1635ft 168kts
27-May-18 21:12 47.576762 -122.341915 150 890ft 154kts
27-May-18 21:13 47.541432 -122.312099 151 115ft 135kts
27-May-18 21:14 47.523796 -122.297232 150 26ft 29kts
27-May-18 21:15 47.526731 -122.298175 329 26ft 33kts
27-May-18 21:16 47.533001 -122.301888 330 26ft 17kts

Navigation Log

Ident Type
Flight plan parsing failed, navigation log unavailable